Sierra Vista, Arizona
Current Conditions -  °F | °C
As of 3:56 AM on Sunday 21 Dec 2014 (Local Time) from KFHU Reporting Station
Clear Clear  
Wind Chill: 36°   Ceiling: Unl
Heat Index: 39°   Visibility: 10mi
Dew Point: 26°   Wind: 5mph
Humidity: 60%   Direction: 270°W
Pressure: 30.12"   Gusts: NA
Location:  31.57°N, 110.32°W
Report Text: KFHU 211056Z AUTO 27004KT 10SM CLR 04/M03 A3012 RMK AO2 SLP180 T00391033 $
Loading
Personal Weather Stations






























Interactive Weather Map New forecast layout! Learn more

10-Day Weather Forecast

Advertisements
Track Severe Weather on mobile